sensor_id;sensor_type;location;lat;lon;timestamp;P1;durP1;ratioP1;P2;durP2;ratioP2
59617;SDS011;45437;51.458;-2.568;2022-09-03T00:00:55;5.32;;;4.10;;
59617;SDS011;45437;51.458;-2.568;2022-09-03T00:03:11;6.95;;;4.35;;
59617;SDS011;45437;51.458;-2.568;2022-09-03T00:04:41;6.43;;;4.53;;
59617;SDS011;45437;51.458;-2.568;2022-09-03T00:06:02;6.78;;;4.53;;
59617;SDS011;45437;51.458;-2.568;2022-09-03T00:07:15;7.43;;;4.57;;
59617;SDS011;45437;51.458;-2.568;2022-09-03T00:08:26;8.65;;;4.70;;
59617;SDS011;45437;51.458;-2.568;2022-09-03T00:09:39;5.25;;;4.03;;
59617;SDS011;45437;51.458;-2.568;2022-09-03T00:10:48;8.65;;;4.43;;
59617;SDS011;45437;51.458;-2.568;2022-09-03T00:13:00;6.18;;;4.35;;
59617;SDS011;45437;51.458;-2.568;2022-09-03T00:14:04;6.63;;;4.30;;
59617;SDS011;45437;51.458;-2.568;2022-09-03T00:15:12;8.93;;;4.45;;
59617;SDS011;45437;51.458;-2.568;2022-09-03T00:16:17;5.57;;;3.97;;
59617;SDS011;45437;51.458;-2.568;2022-09-03T00:17:23;9.10;;;4.63;;
59617;SDS011;45437;51.458;-2.568;2022-09-03T00:18:30;7.85;;;5.03;;
59617;SDS011;45437;51.458;-2.568;2022-09-03T00:19:35;7.20;;;4.60;;
59617;SDS011;45437;51.458;-2.568;2022-09-03T00:20:44;6.93;;;4.43;;
59617;SDS011;45437;51.458;-2.568;2022-09-03T00:21:54;6.85;;;4.90;;
59617;SDS011;45437;51.458;-2.568;2022-09-03T00:24:57;6.03;;;4.22;;
59617;SDS011;45437;51.458;-2.568;2022-09-03T00:27:21;7.25;;;4.78;;
59617;SDS011;45437;51.458;-2.568;2022-09-03T00:28:25;6.97;;;4.63;;
59617;SDS011;45437;51.458;-2.568;2022-09-03T00:29:39;5.75;;;4.40;;
59617;SDS011;45437;51.458;-2.568;2022-09-03T00:30:46;9.57;;;4.55;;
59617;SDS011;45437;51.458;-2.568;2022-09-03T00:31:53;11.75;;;4.65;;
59617;SDS011;45437;51.458;-2.568;2022-09-03T00:33:06;7.45;;;4.55;;
59617;SDS011;45437;51.458;-2.568;2022-09-03T00:34:15;9.07;;;4.55;;
59617;SDS011;45437;51.458;-2.568;2022-09-03T00:35:27;7.28;;;4.93;;
59617;SDS011;45437;51.458;-2.568;2022-09-03T00:36:38;6.45;;;4.72;;
59617;SDS011;45437;51.458;-2.568;2022-09-03T00:37:41;8.38;;;4.75;;
59617;SDS011;45437;51.458;-2.568;2022-09-03T00:38:43;7.97;;;4.90;;
59617;SDS011;45437;51.458;-2.568;2022-09-03T00:39:44;9.00;;;5.13;;
59617;SDS011;45437;51.458;-2.568;2022-09-03T00:44:35;8.15;;;4.75;;
59617;SDS011;45437;51.458;-2.568;2022-09-03T00:49:09;5.75;;;4.43;;
59617;SDS011;45437;51.458;-2.568;2022-09-03T00:50:34;5.85;;;4.30;;
59617;SDS011;45437;51.458;-2.568;2022-09-03T00:57:29;8.07;;;4.43;;
59617;SDS011;45437;51.458;-2.568;2022-09-03T01:00:12;9.38;;;4.70;;
59617;SDS011;45437;51.458;-2.568;2022-09-03T01:01:17;7.53;;;4.75;;
59617;SDS011;45437;51.458;-2.568;2022-09-03T01:10:34;8.50;;;4.70;;
59617;SDS011;45437;51.458;-2.568;2022-09-03T01:12:55;9.60;;;5.40;;
59617;SDS011;45437;51.458;-2.568;2022-09-03T01:15:44;7.60;;;4.75;;
59617;SDS011;45437;51.458;-2.568;2022-09-03T01:17:09;8.27;;;4.95;;
59617;SDS011;45437;51.458;-2.568;2022-09-03T01:21:11;9.90;;;4.82;;
59617;SDS011;45437;51.458;-2.568;2022-09-03T01:24:03;6.78;;;4.45;;
59617;SDS011;45437;51.458;-2.568;2022-09-03T01:29:50;13.02;;;5.45;;
59617;SDS011;45437;51.458;-2.568;2022-09-03T01:31:17;7.78;;;5.20;;
59617;SDS011;45437;51.458;-2.568;2022-09-03T01:35:33;6.55;;;4.60;;
59617;SDS011;45437;51.458;-2.568;2022-09-03T01:39:11;10.85;;;5.10;;
59617;SDS011;45437;51.458;-2.568;2022-09-03T01:46:41;8.82;;;4.85;;
59617;SDS011;45437;51.458;-2.568;2022-09-03T01:49:24;9.32;;;5.22;;
59617;SDS011;45437;51.458;-2.568;2022-09-03T01:50:42;6.50;;;4.43;;
59617;SDS011;45437;51.458;-2.568;2022-09-03T01:52:05;8.73;;;5.38;;
59617;SDS011;45437;51.458;-2.568;2022-09-03T01:53:17;8.18;;;5.10;;
59617;SDS011;45437;51.458;-2.568;2022-09-03T01:54:22;13.60;;;5.72;;
59617;SDS011;45437;51.458;-2.568;2022-09-03T02:00:41;9.60;;;5.55;;
59617;SDS011;45437;51.458;-2.568;2022-09-03T02:01:55;9.27;;;5.70;;
59617;SDS011;45437;51.458;-2.568;2022-09-03T02:03:06;7.82;;;4.43;;
59617;SDS011;45437;51.458;-2.568;2022-09-03T02:04:18;9.85;;;5.05;;
59617;SDS011;45437;51.458;-2.568;2022-09-03T02:05:23;8.55;;;5.00;;
59617;SDS011;45437;51.458;-2.568;2022-09-03T02:06:28;6.65;;;4.60;;
59617;SDS011;45437;51.458;-2.568;2022-09-03T02:07:32;7.78;;;5.35;;
59617;SDS011;45437;51.458;-2.568;2022-09-03T02:08:38;7.75;;;5.50;;
59617;SDS011;45437;51.458;-2.568;2022-09-03T02:09:40;6.95;;;4.65;;
59617;SDS011;45437;51.458;-2.568;2022-09-03T02:10:45;7.30;;;5.27;;
59617;SDS011;45437;51.458;-2.568;2022-09-03T02:11:54;9.63;;;4.85;;
59617;SDS011;45437;51.458;-2.568;2022-09-03T02:17:20;7.10;;;4.57;;
59617;SDS011;45437;51.458;-2.568;2022-09-03T02:18:30;8.07;;;5.20;;
59617;SDS011;45437;51.458;-2.568;2022-09-03T02:19:36;7.45;;;5.40;;
59617;SDS011;45437;51.458;-2.568;2022-09-03T02:20:38;8.50;;;5.35;;
59617;SDS011;45437;51.458;-2.568;2022-09-03T02:21:41;7.50;;;5.47;;
59617;SDS011;45437;51.458;-2.568;2022-09-03T02:22:50;8.93;;;5.95;;
59617;SDS011;45437;51.458;-2.568;2022-09-03T02:23:53;7.88;;;5.10;;
59617;SDS011;45437;51.458;-2.568;2022-09-03T02:24:54;7.93;;;5.30;;
59617;SDS011;45437;51.458;-2.568;2022-09-03T02:25:56;7.90;;;5.53;;
59617;SDS011;45437;51.458;-2.568;2022-09-03T02:26:58;8.00;;;5.57;;
59617;SDS011;45437;51.458;-2.568;2022-09-03T02:27:59;7.55;;;5.47;;
59617;SDS011;45437;51.458;-2.568;2022-09-03T02:29:02;7.05;;;5.45;;
59617;SDS011;45437;51.458;-2.568;2022-09-03T02:31:05;9.02;;;5.32;;
59617;SDS011;45437;51.458;-2.568;2022-09-03T02:32:07;8.35;;;5.07;;
59617;SDS011;45437;51.458;-2.568;2022-09-03T02:33:07;9.60;;;5.70;;
59617;SDS011;45437;51.458;-2.568;2022-09-03T02:34:09;9.15;;;5.78;;
59617;SDS011;45437;51.458;-2.568;2022-09-03T02:35:10;8.32;;;5.63;;
59617;SDS011;45437;51.458;-2.568;2022-09-03T02:36:13;7.28;;;5.53;;
59617;SDS011;45437;51.458;-2.568;2022-09-03T02:37:17;9.23;;;5.30;;
59617;SDS011;45437;51.458;-2.568;2022-09-03T02:38:19;9.90;;;5.30;;
59617;SDS011;45437;51.458;-2.568;2022-09-03T02:39:27;9.73;;;5.03;;
59617;SDS011;45437;51.458;-2.568;2022-09-03T02:40:28;9.27;;;4.97;;
59617;SDS011;45437;51.458;-2.568;2022-09-03T02:41:28;8.27;;;5.70;;
59617;SDS011;45437;51.458;-2.568;2022-09-03T02:42:30;8.52;;;5.50;;
59617;SDS011;45437;51.458;-2.568;2022-09-03T02:43:41;8.77;;;5.77;;
59617;SDS011;45437;51.458;-2.568;2022-09-03T02:44:52;8.90;;;5.57;;
59617;SDS011;45437;51.458;-2.568;2022-09-03T02:46:01;12.75;;;5.85;;
59617;SDS011;45437;51.458;-2.568;2022-09-03T02:47:05;7.65;;;5.40;;
59617;SDS011;45437;51.458;-2.568;2022-09-03T02:48:08;7.93;;;5.90;;
59617;SDS011;45437;51.458;-2.568;2022-09-03T02:49:10;7.97;;;5.75;;
59617;SDS011;45437;51.458;-2.568;2022-09-03T02:50:11;9.20;;;5.80;;
59617;SDS011;45437;51.458;-2.568;2022-09-03T02:51:12;7.87;;;5.67;;
59617;SDS011;45437;51.458;-2.568;2022-09-03T02:52:12;8.83;;;5.80;;
59617;SDS011;45437;51.458;-2.568;2022-09-03T02:53:14;10.05;;;6.18;;
59617;SDS011;45437;51.458;-2.568;2022-09-03T02:54:15;9.70;;;5.60;;
59617;SDS011;45437;51.458;-2.568;2022-09-03T02:55:16;10.05;;;6.35;;
59617;SDS011;45437;51.458;-2.568;2022-09-03T02:56:18;7.32;;;5.65;;
59617;SDS011;45437;51.458;-2.568;2022-09-03T02:57:19;8.60;;;6.33;;
59617;SDS011;45437;51.458;-2.568;2022-09-03T02:58:19;11.37;;;5.90;;
59617;SDS011;45437;51.458;-2.568;2022-09-03T02:59:20;9.97;;;5.57;;
59617;SDS011;45437;51.458;-2.568;2022-09-03T03:00:21;12.35;;;6.05;;
59617;SDS011;45437;51.458;-2.568;2022-09-03T03:01:22;11.87;;;6.90;;
59617;SDS011;45437;51.458;-2.568;2022-09-03T03:02:23;12.25;;;6.55;;
59617;SDS011;45437;51.458;-2.568;2022-09-03T03:03:24;14.50;;;6.73;;
59617;SDS011;45437;51.458;-2.568;2022-09-03T03:04:26;10.15;;;6.88;;
59617;SDS011;45437;51.458;-2.568;2022-09-03T03:05:29;12.38;;;6.65;;
59617;SDS011;45437;51.458;-2.568;2022-09-03T03:06:42;9.52;;;6.13;;
59617;SDS011;45437;51.458;-2.568;2022-09-03T03:07:43;9.57;;;6.53;;
59617;SDS011;45437;51.458;-2.568;2022-09-03T03:08:44;9.80;;;7.00;;
59617;SDS011;45437;51.458;-2.568;2022-09-03T03:09:45;10.57;;;6.55;;
59617;SDS011;45437;51.458;-2.568;2022-09-03T03:10:47;10.13;;;6.73;;
59617;SDS011;45437;51.458;-2.568;2022-09-03T03:12:50;9.57;;;6.10;;
59617;SDS011;45437;51.458;-2.568;2022-09-03T03:13:51;8.57;;;6.10;;
59617;SDS011;45437;51.458;-2.568;2022-09-03T03:14:52;12.75;;;6.97;;
59617;SDS011;45437;51.458;-2.568;2022-09-03T03:15:56;11.03;;;7.23;;
59617;SDS011;45437;51.458;-2.568;2022-09-03T03:16:58;12.48;;;6.72;;
59617;SDS011;45437;51.458;-2.568;2022-09-03T03:17:58;9.73;;;6.90;;
59617;SDS011;45437;51.458;-2.568;2022-09-03T03:18:59;8.97;;;6.33;;
59617;SDS011;45437;51.458;-2.568;2022-09-03T03:20:00;11.03;;;7.33;;
59617;SDS011;45437;51.458;-2.568;2022-09-03T03:21:10;10.07;;;6.97;;
59617;SDS011;45437;51.458;-2.568;2022-09-03T03:22:13;10.82;;;6.70;;
59617;SDS011;45437;51.458;-2.568;2022-09-03T03:23:14;14.30;;;6.97;;
59617;SDS011;45437;51.458;-2.568;2022-09-03T03:24:14;12.07;;;6.63;;
59617;SDS011;45437;51.458;-2.568;2022-09-03T03:25:15;11.10;;;7.27;;
59617;SDS011;45437;51.458;-2.568;2022-09-03T03:26:16;11.57;;;7.53;;
59617;SDS011;45437;51.458;-2.568;2022-09-03T03:27:18;14.63;;;7.82;;
59617;SDS011;45437;51.458;-2.568;2022-09-03T03:28:19;10.87;;;7.43;;
59617;SDS011;45437;51.458;-2.568;2022-09-03T03:29:20;12.67;;;7.23;;
59617;SDS011;45437;51.458;-2.568;2022-09-03T03:30:20;11.67;;;8.00;;
59617;SDS011;45437;51.458;-2.568;2022-09-03T03:31:22;9.85;;;6.80;;
59617;SDS011;45437;51.458;-2.568;2022-09-03T03:32:23;11.65;;;7.70;;
59617;SDS011;45437;51.458;-2.568;2022-09-03T03:33:24;16.60;;;8.40;;
59617;SDS011;45437;51.458;-2.568;2022-09-03T03:34:24;12.00;;;7.93;;
59617;SDS011;45437;51.458;-2.568;2022-09-03T03:35:25;16.30;;;8.73;;
59617;SDS011;45437;51.458;-2.568;2022-09-03T03:36:27;14.50;;;8.83;;
59617;SDS011;45437;51.458;-2.568;2022-09-03T03:37:29;15.30;;;9.57;;
59617;SDS011;45437;51.458;-2.568;2022-09-03T03:38:31;15.60;;;8.90;;
59617;SDS011;45437;51.458;-2.568;2022-09-03T03:39:32;13.23;;;8.57;;
59617;SDS011;45437;51.458;-2.568;2022-09-03T03:40:32;17.80;;;9.57;;
59617;SDS011;45437;51.458;-2.568;2022-09-03T03:41:34;16.83;;;9.88;;
59617;SDS011;45437;51.458;-2.568;2022-09-03T03:42:35;17.45;;;10.15;;
59617;SDS011;45437;51.458;-2.568;2022-09-03T03:43:36;15.97;;;9.80;;
59617;SDS011;45437;51.458;-2.568;2022-09-03T03:44:37;19.63;;;10.60;;
59617;SDS011;45437;51.458;-2.568;2022-09-03T03:45:38;15.57;;;9.77;;
59617;SDS011;45437;51.458;-2.568;2022-09-03T03:46:39;16.37;;;9.97;;
59617;SDS011;45437;51.458;-2.568;2022-09-03T03:48:41;16.65;;;9.38;;
59617;SDS011;45437;51.458;-2.568;2022-09-03T03:49:42;18.50;;;9.90;;
59617;SDS011;45437;51.458;-2.568;2022-09-03T03:50:44;17.10;;;9.73;;
59617;SDS011;45437;51.458;-2.568;2022-09-03T03:51:44;19.33;;;10.95;;
59617;SDS011;45437;51.458;-2.568;2022-09-03T03:52:45;17.63;;;9.87;;
59617;SDS011;45437;51.458;-2.568;2022-09-03T03:53:47;15.68;;;8.73;;
59617;SDS011;45437;51.458;-2.568;2022-09-03T03:54:47;17.83;;;10.67;;
59617;SDS011;45437;51.458;-2.568;2022-09-03T03:55:55;18.23;;;10.32;;
59617;SDS011;45437;51.458;-2.568;2022-09-03T03:56:57;21.40;;;11.23;;
59617;SDS011;45437;51.458;-2.568;2022-09-03T03:57:58;19.17;;;11.13;;
59617;SDS011;45437;51.458;-2.568;2022-09-03T03:58:59;17.50;;;10.07;;
59617;SDS011;45437;51.458;-2.568;2022-09-03T04:00:00;17.40;;;10.67;;
59617;SDS011;45437;51.458;-2.568;2022-09-03T04:01:04;20.47;;;11.07;;
59617;SDS011;45437;51.458;-2.568;2022-09-03T04:02:06;19.58;;;11.23;;
59617;SDS011;45437;51.458;-2.568;2022-09-03T04:03:07;18.00;;;10.50;;
59617;SDS011;45437;51.458;-2.568;2022-09-03T04:04:07;21.80;;;12.10;;
59617;SDS011;45437;51.458;-2.568;2022-09-03T04:05:08;18.80;;;11.40;;
59617;SDS011;45437;51.458;-2.568;2022-09-03T04:06:10;21.15;;;11.63;;
59617;SDS011;45437;51.458;-2.568;2022-09-03T04:07:12;24.73;;;12.57;;
59617;SDS011;45437;51.458;-2.568;2022-09-03T04:08:13;23.35;;;11.75;;
59617;SDS011;45437;51.458;-2.568;2022-09-03T04:09:13;19.20;;;11.70;;
59617;SDS011;45437;51.458;-2.568;2022-09-03T04:10:14;22.63;;;11.53;;
59617;SDS011;45437;51.458;-2.568;2022-09-03T04:11:16;17.17;;;10.77;;
59617;SDS011;45437;51.458;-2.568;2022-09-03T04:12:19;20.75;;;11.25;;
59617;SDS011;45437;51.458;-2.568;2022-09-03T04:13:19;20.47;;;11.27;;
59617;SDS011;45437;51.458;-2.568;2022-09-03T04:14:20;21.10;;;11.73;;
59617;SDS011;45437;51.458;-2.568;2022-09-03T04:15:21;18.50;;;10.63;;
59617;SDS011;45437;51.458;-2.568;2022-09-03T04:16:23;21.57;;;11.63;;
59617;SDS011;45437;51.458;-2.568;2022-09-03T04:17:26;22.67;;;11.57;;
59617;SDS011;45437;51.458;-2.568;2022-09-03T04:19:28;17.55;;;9.95;;
59617;SDS011;45437;51.458;-2.568;2022-09-03T04:20:29;19.42;;;10.98;;
59617;SDS011;45437;51.458;-2.568;2022-09-03T04:21:30;18.20;;;10.20;;
59617;SDS011;45437;51.458;-2.568;2022-09-03T04:22:31;20.30;;;11.90;;
59617;SDS011;45437;51.458;-2.568;2022-09-03T04:23:35;17.43;;;11.47;;
59617;SDS011;45437;51.458;-2.568;2022-09-03T04:24:38;19.80;;;11.10;;
59617;SDS011;45437;51.458;-2.568;2022-09-03T04:25:38;19.37;;;10.57;;
59617;SDS011;45437;51.458;-2.568;2022-09-03T04:27:41;18.02;;;9.07;;
59617;SDS011;45437;51.458;-2.568;2022-09-03T04:28:43;19.50;;;10.77;;
59617;SDS011;45437;51.458;-2.568;2022-09-03T04:29:44;23.05;;;11.88;;
59617;SDS011;45437;51.458;-2.568;2022-09-03T04:30:45;19.67;;;10.80;;
59617;SDS011;45437;51.458;-2.568;2022-09-03T04:31:46;19.77;;;12.13;;
59617;SDS011;45437;51.458;-2.568;2022-09-03T04:33:05;18.30;;;10.88;;
59617;SDS011;45437;51.458;-2.568;2022-09-03T04:34:06;18.50;;;10.60;;
59617;SDS011;45437;51.458;-2.568;2022-09-03T04:35:07;19.47;;;11.17;;
59617;SDS011;45437;51.458;-2.568;2022-09-03T04:36:09;21.73;;;11.73;;
59617;SDS011;45437;51.458;-2.568;2022-09-03T04:37:15;18.55;;;11.02;;
59617;SDS011;45437;51.458;-2.568;2022-09-03T04:38:18;21.73;;;10.98;;
59617;SDS011;45437;51.458;-2.568;2022-09-03T04:39:19;19.07;;;10.67;;
59617;SDS011;45437;51.458;-2.568;2022-09-03T04:40:20;17.83;;;10.33;;
59617;SDS011;45437;51.458;-2.568;2022-09-03T04:41:21;17.80;;;10.17;;
59617;SDS011;45437;51.458;-2.568;2022-09-03T04:42:24;18.48;;;10.95;;
59617;SDS011;45437;51.458;-2.568;2022-09-03T04:43:26;20.17;;;10.63;;
59617;SDS011;45437;51.458;-2.568;2022-09-03T04:44:27;19.67;;;11.68;;
59617;SDS011;45437;51.458;-2.568;2022-09-03T04:45:28;19.37;;;11.50;;
59617;SDS011;45437;51.458;-2.568;2022-09-03T04:46:29;22.05;;;12.55;;
59617;SDS011;45437;51.458;-2.568;2022-09-03T04:47:32;17.75;;;10.25;;
59617;SDS011;45437;51.458;-2.568;2022-09-03T04:48:33;17.17;;;10.10;;
59617;SDS011;45437;51.458;-2.568;2022-09-03T04:49:35;17.70;;;10.15;;
59617;SDS011;45437;51.458;-2.568;2022-09-03T04:50:36;19.87;;;11.30;;
59617;SDS011;45437;51.458;-2.568;2022-09-03T04:51:37;17.80;;;10.73;;
59617;SDS011;45437;51.458;-2.568;2022-09-03T04:52:38;19.42;;;11.60;;
59617;SDS011;45437;51.458;-2.568;2022-09-03T04:53:40;21.10;;;11.37;;
59617;SDS011;45437;51.458;-2.568;2022-09-03T04:54:42;19.35;;;11.05;;
59617;SDS011;45437;51.458;-2.568;2022-09-03T04:55:43;18.63;;;10.70;;
59617;SDS011;45437;51.458;-2.568;2022-09-03T04:56:43;17.23;;;10.50;;
59617;SDS011;45437;51.458;-2.568;2022-09-03T04:57:44;20.17;;;11.20;;
59617;SDS011;45437;51.458;-2.568;2022-09-03T04:58:45;17.17;;;11.10;;
59617;SDS011;45437;51.458;-2.568;2022-09-03T04:59:46;20.30;;;11.63;;
59617;SDS011;45437;51.458;-2.568;2022-09-03T05:00:47;18.97;;;11.43;;
59617;SDS011;45437;51.458;-2.568;2022-09-03T05:01:48;19.83;;;11.37;;
59617;SDS011;45437;51.458;-2.568;2022-09-03T05:02:48;19.20;;;11.50;;
59617;SDS011;45437;51.458;-2.568;2022-09-03T05:04:51;20.38;;;10.32;;
59617;SDS011;45437;51.458;-2.568;2022-09-03T05:05:53;22.05;;;11.43;;
59617;SDS011;45437;51.458;-2.568;2022-09-03T05:06:55;21.05;;;11.27;;
59617;SDS011;45437;51.458;-2.568;2022-09-03T05:08:01;20.20;;;11.60;;
59617;SDS011;45437;51.458;-2.568;2022-09-03T05:09:03;20.85;;;11.20;;
59617;SDS011;45437;51.458;-2.568;2022-09-03T05:10:05;18.77;;;10.68;;
59617;SDS011;45437;51.458;-2.568;2022-09-03T05:11:07;18.88;;;11.23;;
59617;SDS011;45437;51.458;-2.568;2022-09-03T05:12:08;20.63;;;11.40;;
59617;SDS011;45437;51.458;-2.568;2022-09-03T05:13:10;19.77;;;11.18;;
59617;SDS011;45437;51.458;-2.568;2022-09-03T05:14:10;20.00;;;10.83;;
59617;SDS011;45437;51.458;-2.568;2022-09-03T05:15:11;21.17;;;11.25;;
59617;SDS011;45437;51.458;-2.568;2022-09-03T05:16:13;21.65;;;12.18;;
59617;SDS011;45437;51.458;-2.568;2022-09-03T05:17:14;18.95;;;11.38;;
59617;SDS011;45437;51.458;-2.568;2022-09-03T05:18:15;20.17;;;10.67;;
59617;SDS011;45437;51.458;-2.568;2022-09-03T05:19:15;20.70;;;11.40;;
59617;SDS011;45437;51.458;-2.568;2022-09-03T05:20:16;19.20;;;11.27;;
59617;SDS011;45437;51.458;-2.568;2022-09-03T05:21:17;21.87;;;10.93;;
59617;SDS011;45437;51.458;-2.568;2022-09-03T05:22:20;20.13;;;10.53;;
59617;SDS011;45437;51.458;-2.568;2022-09-03T05:23:21;17.20;;;10.95;;
59617;SDS011;45437;51.458;-2.568;2022-09-03T05:24:22;19.23;;;11.13;;
59617;SDS011;45437;51.458;-2.568;2022-09-03T05:25:24;16.85;;;10.00;;
59617;SDS011;45437;51.458;-2.568;2022-09-03T05:26:25;19.70;;;9.83;;
59617;SDS011;45437;51.458;-2.568;2022-09-03T05:27:27;20.40;;;10.63;;
59617;SDS011;45437;51.458;-2.568;2022-09-03T05:28:29;22.02;;;10.77;;
59617;SDS011;45437;51.458;-2.568;2022-09-03T05:29:30;18.07;;;9.13;;
59617;SDS011;45437;51.458;-2.568;2022-09-03T05:30:31;19.10;;;10.27;;
59617;SDS011;45437;51.458;-2.568;2022-09-03T05:31:32;18.10;;;10.37;;
59617;SDS011;45437;51.458;-2.568;2022-09-03T05:32:35;18.88;;;10.48;;
59617;SDS011;45437;51.458;-2.568;2022-09-03T05:33:36;18.88;;;10.30;;
59617;SDS011;45437;51.458;-2.568;2022-09-03T05:34:42;18.88;;;10.48;;
59617;SDS011;45437;51.458;-2.568;2022-09-03T05:35:43;15.93;;;9.90;;
59617;SDS011;45437;51.458;-2.568;2022-09-03T05:36:44;17.57;;;9.53;;
59617;SDS011;45437;51.458;-2.568;2022-09-03T05:37:46;17.08;;;9.88;;
59617;SDS011;45437;51.458;-2.568;2022-09-03T05:38:47;19.98;;;11.00;;
59617;SDS011;45437;51.458;-2.568;2022-09-03T05:39:48;16.30;;;9.80;;
59617;SDS011;45437;51.458;-2.568;2022-09-03T05:40:50;16.15;;;9.07;;
59617;SDS011;45437;51.458;-2.568;2022-09-03T05:41:50;20.63;;;9.90;;
59617;SDS011;45437;51.458;-2.568;2022-09-03T05:42:55;18.45;;;9.52;;
59617;SDS011;45437;51.458;-2.568;2022-09-03T05:43:58;18.55;;;9.85;;
59617;SDS011;45437;51.458;-2.568;2022-09-03T05:44:59;17.25;;;9.80;;
59617;SDS011;45437;51.458;-2.568;2022-09-03T05:46:00;15.87;;;8.57;;
59617;SDS011;45437;51.458;-2.568;2022-09-03T05:47:02;15.18;;;8.63;;
59617;SDS011;45437;51.458;-2.568;2022-09-03T05:48:03;19.33;;;10.03;;
59617;SDS011;45437;51.458;-2.568;2022-09-03T05:49:04;17.03;;;8.77;;
59617;SDS011;45437;51.458;-2.568;2022-09-03T05:51:11;14.40;;;7.40;;
59617;SDS011;45437;51.458;-2.568;2022-09-03T05:52:16;16.67;;;9.48;;
59617;SDS011;45437;51.458;-2.568;2022-09-03T05:53:20;16.27;;;8.75;;
59617;SDS011;45437;51.458;-2.568;2022-09-03T05:54:22;17.52;;;9.25;;
59617;SDS011;45437;51.458;-2.568;2022-09-03T05:55:22;18.50;;;9.20;;
59617;SDS011;45437;51.458;-2.568;2022-09-03T05:56:24;15.87;;;9.67;;
59617;SDS011;45437;51.458;-2.568;2022-09-03T05:57:25;16.70;;;8.57;;
59617;SDS011;45437;51.458;-2.568;2022-09-03T05:58:30;19.63;;;9.13;;
59617;SDS011;45437;51.458;-2.568;2022-09-03T05:59:31;18.05;;;9.50;;
59617;SDS011;45437;51.458;-2.568;2022-09-03T06:00:31;17.40;;;8.47;;
59617;SDS011;45437;51.458;-2.568;2022-09-03T06:01:33;18.53;;;10.20;;
59617;SDS011;45437;51.458;-2.568;2022-09-03T06:02:35;20.75;;;9.60;;
59617;SDS011;45437;51.458;-2.568;2022-09-03T06:03:36;19.93;;;9.83;;
59617;SDS011;45437;51.458;-2.568;2022-09-03T06:04:37;20.60;;;10.27;;
59617;SDS011;45437;51.458;-2.568;2022-09-03T06:05:37;19.43;;;9.83;;
59617;SDS011;45437;51.458;-2.568;2022-09-03T06:06:42;18.00;;;9.53;;
59617;SDS011;45437;51.458;-2.568;2022-09-03T06:07:44;17.35;;;9.50;;
59617;SDS011;45437;51.458;-2.568;2022-09-03T06:08:48;20.45;;;10.05;;
59617;SDS011;45437;51.458;-2.568;2022-09-03T06:10:56;14.88;;;8.43;;
59617;SDS011;45437;51.458;-2.568;2022-09-03T06:11:58;16.55;;;9.48;;
59617;SDS011;45437;51.458;-2.568;2022-09-03T06:12:59;15.43;;;9.00;;
59617;SDS011;45437;51.458;-2.568;2022-09-03T06:14:03;17.70;;;10.13;;
59617;SDS011;45437;51.458;-2.568;2022-09-03T06:15:07;15.75;;;9.35;;
59617;SDS011;45437;51.458;-2.568;2022-09-03T06:16:08;16.55;;;9.00;;
59617;SDS011;45437;51.458;-2.568;2022-09-03T06:17:09;17.05;;;9.38;;
59617;SDS011;45437;51.458;-2.568;2022-09-03T06:18:11;15.90;;;9.07;;
59617;SDS011;45437;51.458;-2.568;2022-09-03T06:19:12;16.07;;;8.97;;
59617;SDS011;45437;51.458;-2.568;2022-09-03T06:20:13;15.20;;;8.97;;
59617;SDS011;45437;51.458;-2.568;2022-09-03T06:21:14;16.67;;;8.83;;
59617;SDS011;45437;51.458;-2.568;2022-09-03T06:22:15;18.73;;;10.75;;
59617;SDS011;45437;51.458;-2.568;2022-09-03T06:23:16;18.05;;;10.00;;
59617;SDS011;45437;51.458;-2.568;2022-09-03T06:24:18;17.10;;;10.18;;
59617;SDS011;45437;51.458;-2.568;2022-09-03T06:25:22;16.73;;;10.00;;
59617;SDS011;45437;51.458;-2.568;2022-09-03T06:26:23;16.45;;;9.63;;
59617;SDS011;45437;51.458;-2.568;2022-09-03T06:27:27;16.25;;;8.90;;
59617;SDS011;45437;51.458;-2.568;2022-09-03T06:28:29;17.13;;;9.65;;
59617;SDS011;45437;51.458;-2.568;2022-09-03T06:29:30;15.40;;;9.10;;
59617;SDS011;45437;51.458;-2.568;2022-09-03T06:30:31;16.50;;;9.57;;
59617;SDS011;45437;51.458;-2.568;2022-09-03T06:31:32;15.77;;;8.60;;
59617;SDS011;45437;51.458;-2.568;2022-09-03T06:32:42;16.45;;;9.90;;
59617;SDS011;45437;51.458;-2.568;2022-09-03T06:33:44;16.10;;;9.60;;
59617;SDS011;45437;51.458;-2.568;2022-09-03T06:34:46;17.88;;;9.77;;
59617;SDS011;45437;51.458;-2.568;2022-09-03T06:35:47;19.42;;;10.15;;
59617;SDS011;45437;51.458;-2.568;2022-09-03T06:36:47;17.87;;;10.57;;
59617;SDS011;45437;51.458;-2.568;2022-09-03T06:37:48;17.85;;;10.23;;
59617;SDS011;45437;51.458;-2.568;2022-09-03T06:38:51;16.40;;;9.25;;
59617;SDS011;45437;51.458;-2.568;2022-09-03T06:39:54;17.33;;;10.07;;
59617;SDS011;45437;51.458;-2.568;2022-09-03T06:40:55;15.90;;;10.63;;
59617;SDS011;45437;51.458;-2.568;2022-09-03T06:42:03;20.08;;;9.80;;
59617;SDS011;45437;51.458;-2.568;2022-09-03T06:44:32;16.70;;;9.13;;
59617;SDS011;45437;51.458;-2.568;2022-09-03T06:45:32;18.83;;;9.30;;
59617;SDS011;45437;51.458;-2.568;2022-09-03T06:46:34;14.93;;;9.03;;
59617;SDS011;45437;51.458;-2.568;2022-09-03T06:47:37;15.35;;;9.02;;
59617;SDS011;45437;51.458;-2.568;2022-09-03T06:48:38;15.80;;;9.65;;
59617;SDS011;45437;51.458;-2.568;2022-09-03T06:49:40;15.85;;;9.00;;
59617;SDS011;45437;51.458;-2.568;2022-09-03T06:50:41;14.60;;;7.77;;
59617;SDS011;45437;51.458;-2.568;2022-09-03T06:51:41;16.50;;;8.73;;
59617;SDS011;45437;51.458;-2.568;2022-09-03T06:52:43;14.40;;;8.75;;
59617;SDS011;45437;51.458;-2.568;2022-09-03T06:53:50;17.13;;;10.20;;
59617;SDS011;45437;51.458;-2.568;2022-09-03T06:54:53;16.73;;;9.77;;
59617;SDS011;45437;51.458;-2.568;2022-09-03T06:55:57;14.98;;;9.30;;
59617;SDS011;45437;51.458;-2.568;2022-09-03T06:57:03;15.80;;;9.60;;
59617;SDS011;45437;51.458;-2.568;2022-09-03T06:58:04;14.75;;;8.15;;
59617;SDS011;45437;51.458;-2.568;2022-09-03T06:59:08;14.93;;;8.77;;
59617;SDS011;45437;51.458;-2.568;2022-09-03T07:00:11;12.70;;;7.43;;
59617;SDS011;45437;51.458;-2.568;2022-09-03T07:01:14;12.55;;;8.10;;
59617;SDS011;45437;51.458;-2.568;2022-09-03T07:02:19;20.20;;;10.45;;
59617;SDS011;45437;51.458;-2.568;2022-09-03T07:03:21;15.55;;;9.73;;
59617;SDS011;45437;51.458;-2.568;2022-09-03T07:04:22;17.13;;;10.02;;
59617;SDS011;45437;51.458;-2.568;2022-09-03T07:05:24;21.42;;;8.85;;
59617;SDS011;45437;51.458;-2.568;2022-09-03T07:06:28;16.50;;;9.77;;
59617;SDS011;45437;51.458;-2.568;2022-09-03T07:07:31;14.65;;;10.30;;
59617;SDS011;45437;51.458;-2.568;2022-09-03T07:08:32;15.55;;;9.93;;
59617;SDS011;45437;51.458;-2.568;2022-09-03T07:09:33;17.73;;;8.23;;
59617;SDS011;45437;51.458;-2.568;2022-09-03T07:10:37;17.40;;;9.40;;
59617;SDS011;45437;51.458;-2.568;2022-09-03T07:11:38;13.30;;;8.02;;
59617;SDS011;45437;51.458;-2.568;2022-09-03T07:15:01;12.48;;;7.93;;
59617;SDS011;45437;51.458;-2.568;2022-09-03T07:16:03;13.52;;;8.90;;
59617;SDS011;45437;51.458;-2.568;2022-09-03T07:17:06;14.80;;;9.23;;
59617;SDS011;45437;51.458;-2.568;2022-09-03T07:18:06;14.82;;;9.23;;
59617;SDS011;45437;51.458;-2.568;2022-09-03T07:19:07;16.23;;;10.23;;
59617;SDS011;45437;51.458;-2.568;2022-09-03T07:20:09;15.60;;;9.77;;
59617;SDS011;45437;51.458;-2.568;2022-09-03T07:21:11;19.23;;;10.17;;
59617;SDS011;45437;51.458;-2.568;2022-09-03T07:22:13;14.57;;;9.25;;
59617;SDS011;45437;51.458;-2.568;2022-09-03T07:23:14;15.60;;;8.90;;
59617;SDS011;45437;51.458;-2.568;2022-09-03T07:24:15;13.15;;;8.38;;
59617;SDS011;45437;51.458;-2.568;2022-09-03T07:25:17;14.93;;;8.52;;
59617;SDS011;45437;51.458;-2.568;2022-09-03T07:26:25;16.17;;;8.93;;